createdAt,value
2023-05-18T00:01:57.649Z,569.65
2023-05-18T00:04:02.095Z,747.58
2023-05-18T00:06:07.449Z,759.45
2023-05-18T00:08:10.563Z,931.67
2023-05-18T00:10:13.958Z,539.83
2023-05-18T00:12:17.271Z,813.70
2023-05-18T00:14:20.926Z,685.38
2023-05-18T00:16:25.495Z,788.70
2023-05-18T00:18:28.761Z,532.40
2023-05-18T00:20:31.912Z,486.77
2023-05-18T00:22:35.052Z,592.65
2023-05-18T00:24:38.222Z,923.83
2023-05-18T00:26:55.147Z,697.08
2023-05-18T00:29:06.689Z,946.30
2023-05-18T00:31:30.398Z,807.67
2023-05-18T00:33:50.035Z,1774.50
2023-05-18T00:36:03.472Z,1188.20
2023-05-18T00:38:12.059Z,1220.55
2023-05-18T00:40:15.166Z,1168.10
2023-05-18T00:42:21.016Z,1071.47
2023-05-18T00:44:24.266Z,1211.35
2023-05-18T00:46:29.561Z,917.13
2023-05-18T00:48:32.761Z,1376.95
2023-05-18T00:50:36.325Z,1356.50
2023-05-18T00:52:39.791Z,904.28
2023-05-18T00:54:43.708Z,1185.07
2023-05-18T00:56:48.290Z,1248.65
2023-05-18T00:58:55.524Z,1040.45
2023-05-18T01:00:58.898Z,1346.82
2023-05-18T01:03:03.571Z,1212.13
2023-05-18T01:05:07.397Z,1131.55
2023-05-18T01:07:12.925Z,1128.70
2023-05-18T01:09:16.331Z,1116.45
2023-05-18T01:11:27.216Z,1499.15
2023-05-18T01:13:36.002Z,1210.07
2023-05-18T01:15:40.509Z,673.85
2023-05-18T01:18:15.305Z,1027.05
2023-05-18T01:20:33.581Z,1653.53
2023-05-18T01:22:50.542Z,1547.93
2023-05-18T01:24:59.370Z,1999.90
2023-05-18T01:27:07.302Z,1404.70
2023-05-18T01:29:11.465Z,1898.35
2023-05-18T01:31:16.088Z,869.47
2023-05-18T01:33:19.712Z,707.05
2023-05-18T01:35:22.883Z,1999.90
2023-05-18T01:37:26.964Z,1202.90
2023-05-18T01:39:30.168Z,597.58
2023-05-18T01:41:36.774Z,1477.40
2023-05-18T01:43:47.012Z,685.00
2023-05-18T01:45:52.771Z,715.77
2023-05-18T01:48:00.315Z,717.85
2023-05-18T01:50:05.283Z,1902.20
2023-05-18T01:52:11.637Z,822.63
2023-05-18T01:54:17.800Z,448.63
2023-05-18T01:56:21.856Z,633.45
2023-05-18T01:58:25.442Z,855.07
2023-05-18T02:00:30.397Z,1599.23
2023-05-18T02:02:35.128Z,383.20
2023-05-18T02:04:39.013Z,1044.65
2023-05-18T02:06:42.482Z,963.55
2023-05-18T02:08:45.853Z,487.13
2023-05-18T02:10:49.204Z,433.77
2023-05-18T02:12:53.903Z,363.05
2023-05-18T02:14:58.492Z,279.13
2023-05-18T02:17:03.092Z,980.23
2023-05-18T02:19:06.478Z,618.22
2023-05-18T02:21:10.102Z,680.85
2023-05-18T02:23:15.938Z,1907.22
2023-05-18T02:25:19.301Z,643.38
2023-05-18T02:27:22.975Z,1206.57
2023-05-18T02:29:26.196Z,1489.63
2023-05-18T02:31:31.072Z,598.42
2023-05-18T02:33:39.853Z,745.83
2023-05-18T02:35:42.016Z,739.07
2023-05-18T02:37:45.639Z,948.53
2023-05-18T02:39:49.132Z,958.10
2023-05-18T02:41:52.280Z,498.92
2023-05-18T02:43:56.084Z,930.95
2023-05-18T02:45:59.681Z,1999.90
2023-05-18T02:48:04.105Z,1208.50
2023-05-18T02:50:09.603Z,789.40
2023-05-18T02:52:12.849Z,1730.82
2023-05-18T02:54:16.289Z,1354.68
2023-05-18T02:56:20.298Z,847.05
2023-05-18T02:58:32.155Z,1999.90
2023-05-18T03:00:50.225Z,498.40
2023-05-18T03:02:53.867Z,1368.55
2023-05-18T03:04:57.478Z,698.30
2023-05-18T03:07:02.882Z,864.05
2023-05-18T03:09:06.195Z,951.63
2023-05-18T03:11:15.056Z,795.88
2023-05-18T03:13:19.701Z,1263.50
2023-05-18T03:15:23.192Z,750.65
2023-05-18T03:17:26.420Z,704.97
2023-05-18T03:19:29.578Z,1052.63
2023-05-18T03:21:36.201Z,817.40
2023-05-18T03:23:41.112Z,545.28
2023-05-18T03:25:44.832Z,633.30
2023-05-18T03:27:48.323Z,1588.50
2023-05-18T03:29:53.127Z,1206.87
2023-05-18T03:31:56.198Z,938.13
2023-05-18T03:33:59.494Z,958.85
2023-05-18T03:36:04.846Z,1999.90
2023-05-18T03:38:08.734Z,1999.90
2023-05-18T03:40:17.151Z,1103.18
2023-05-18T03:42:21.717Z,877.00
2023-05-18T03:44:24.916Z,922.83
2023-05-18T03:46:28.301Z,980.93
2023-05-18T03:48:31.868Z,1875.43
2023-05-18T03:50:35.207Z,947.63
2023-05-18T03:52:41.620Z,1803.93
2023-05-18T03:54:45.172Z,1390.78
2023-05-18T03:56:49.767Z,1159.00
2023-05-18T03:58:53.488Z,1028.95
2023-05-18T04:00:57.234Z,873.40
2023-05-18T04:03:03.392Z,1278.80
2023-05-18T04:05:08.158Z,1999.90
2023-05-18T04:07:11.803Z,571.08
2023-05-18T04:09:17.326Z,1928.32
2023-05-18T04:11:21.469Z,1078.80
2023-05-18T04:13:25.987Z,564.42
2023-05-18T04:15:29.421Z,1027.65
2023-05-18T04:17:34.042Z,1406.30
2023-05-18T04:19:37.981Z,1107.47
2023-05-18T04:21:43.763Z,973.50
2023-05-18T04:23:47.278Z,395.23
2023-05-18T04:25:50.510Z,1994.53
2023-05-18T04:27:54.498Z,736.58
2023-05-18T04:30:00.162Z,1999.90
2023-05-18T04:32:03.390Z,871.80
2023-05-18T04:34:07.014Z,786.47
2023-05-18T04:36:10.387Z,361.63
2023-05-18T04:38:14.993Z,672.30
2023-05-18T04:40:18.559Z,417.50
2023-05-18T04:42:23.650Z,403.20
2023-05-18T04:44:27.802Z,510.55
2023-05-18T04:46:34.907Z,684.17
2023-05-18T04:48:38.961Z,624.53
2023-05-18T04:50:42.059Z,542.92
2023-05-18T04:52:48.735Z,716.43
2023-05-18T04:54:53.705Z,692.33
2023-05-18T04:56:56.774Z,958.40
2023-05-18T04:59:00.152Z,727.67
2023-05-18T05:01:06.905Z,702.77
2023-05-18T05:03:11.662Z,447.70
2023-05-18T05:05:14.832Z,306.25
2023-05-18T05:07:18.053Z,506.33
2023-05-18T05:09:22.810Z,305.23
2023-05-18T05:11:25.990Z,844.77
2023-05-18T05:13:29.175Z,615.33
2023-05-18T05:15:34.389Z,584.17
2023-05-18T05:17:37.610Z,1623.17
2023-05-18T05:19:45.560Z,313.07
2023-05-18T05:21:48.890Z,869.83
2023-05-18T05:23:52.120Z,588.60
2023-05-18T05:25:55.391Z,506.42
2023-05-18T05:27:58.441Z,104.27
2023-05-18T05:30:01.912Z,262.67
2023-05-18T05:32:06.643Z,486.25
2023-05-18T05:34:11.723Z,938.57
2023-05-18T05:36:17.022Z,372.38
2023-05-18T05:38:21.623Z,1183.68
2023-05-18T05:40:24.767Z,1083.20
2023-05-18T05:42:30.119Z,566.33
2023-05-18T05:44:33.707Z,634.53
2023-05-18T05:46:53.825Z,412.30
2023-05-18T05:49:44.858Z,1155.33
2023-05-18T05:51:49.982Z,727.13
2023-05-18T05:53:54.665Z,235.50
2023-05-18T05:55:57.971Z,510.67
2023-05-18T05:58:01.067Z,1008.13
2023-05-18T06:00:05.912Z,430.50
2023-05-18T06:06:00.195Z,601.57
2023-05-18T06:08:06.705Z,434.90
2023-05-18T06:10:10.198Z,386.43
2023-05-18T06:12:13.618Z,1999.90
2023-05-18T06:14:17.150Z,404.43
2023-05-18T06:16:20.823Z,347.83
2023-05-18T06:18:25.528Z,313.47
2023-05-18T06:20:38.805Z,633.80
2023-05-18T06:22:42.398Z,344.23
2023-05-18T06:25:08.448Z,184.57
2023-05-18T06:27:28.618Z,490.03
2023-05-18T06:29:46.466Z,654.40
2023-05-18T06:32:00.221Z,241.60
2023-05-18T06:34:18.415Z,585.70
2023-05-18T06:36:21.644Z,401.07
2023-05-18T06:38:25.017Z,343.60
2023-05-18T06:40:30.584Z,341.93
2023-05-18T06:42:35.101Z,343.67
2023-05-18T06:44:59.424Z,343.23
2023-05-18T06:47:48.660Z,399.27
2023-05-18T06:49:51.983Z,341.00
2023-05-18T06:51:55.262Z,345.87
2023-05-18T06:53:58.501Z,487.70
2023-05-18T06:56:04.989Z,493.03
2023-05-18T06:58:08.981Z,347.67
2023-05-18T07:00:13.940Z,357.60
2023-05-18T07:02:17.140Z,311.03
2023-05-18T07:04:20.314Z,327.43
2023-05-18T07:06:23.510Z,472.70
2023-05-18T07:08:26.624Z,341.07
2023-05-18T07:10:30.725Z,364.83
2023-05-18T07:12:35.221Z,368.63
2023-05-18T07:14:38.462Z,304.63
2023-05-18T07:16:41.655Z,323.77
2023-05-18T07:18:44.972Z,331.93
2023-05-18T07:20:48.211Z,343.83
2023-05-18T07:22:51.515Z,329.53
2023-05-18T07:24:54.637Z,334.53
2023-05-18T07:27:00.041Z,336.63
2023-05-18T07:29:05.448Z,254.70
2023-05-18T07:31:08.628Z,337.10
2023-05-18T07:33:11.857Z,341.87
2023-05-18T07:35:16.786Z,342.30
2023-05-18T07:37:20.023Z,257.70
2023-05-18T07:39:28.548Z,343.17
2023-05-18T07:41:32.292Z,348.63
2023-05-18T07:43:37.555Z,415.10
2023-05-18T07:45:42.060Z,344.63
2023-05-18T07:47:46.484Z,267.47
2023-05-18T07:49:49.815Z,261.10
2023-05-18T07:51:53.516Z,327.43
2023-05-18T07:53:56.708Z,340.03
2023-05-18T07:56:00.273Z,341.13
2023-05-18T07:58:03.488Z,202.57
2023-05-18T08:00:10.249Z,295.53
2023-05-18T08:02:19.919Z,325.23
2023-05-18T08:04:23.143Z,201.00
2023-05-18T08:06:26.328Z,192.27
2023-05-18T08:08:30.036Z,238.33
2023-05-18T08:10:33.153Z,257.83
2023-05-18T08:12:36.338Z,228.37
2023-05-18T08:14:39.501Z,299.00
2023-05-18T08:16:42.639Z,287.07
2023-05-18T08:18:47.122Z,297.73
2023-05-18T08:20:53.876Z,286.47
2023-05-18T08:22:56.972Z,279.07
2023-05-18T08:25:00.964Z,253.60
2023-05-18T08:27:04.454Z,207.37
2023-05-18T08:29:10.131Z,185.17
2023-05-18T08:31:13.590Z,209.10
2023-05-18T08:33:16.708Z,264.43
2023-05-18T08:35:21.298Z,215.43
2023-05-18T08:37:29.606Z,238.63
2023-05-18T08:39:33.874Z,342.37
2023-05-18T08:41:40.378Z,291.07
2023-05-18T08:43:47.230Z,210.47
2023-05-18T08:45:53.868Z,288.53
2023-05-18T08:47:58.154Z,273.27
2023-05-18T08:50:04.339Z,154.37
2023-05-18T08:52:10.005Z,342.50
2023-05-18T08:54:13.260Z,522.90
2023-05-18T08:56:16.671Z,261.40
2023-05-18T08:58:21.780Z,387.50
2023-05-18T09:00:25.334Z,212.20
2023-05-18T09:02:28.710Z,260.93
2023-05-18T09:04:34.735Z,181.27
2023-05-18T09:06:38.635Z,303.80
2023-05-18T09:08:43.623Z,264.30
2023-05-18T09:10:50.184Z,222.77
2023-05-18T09:12:53.669Z,238.30
2023-05-18T09:14:57.149Z,341.57
2023-05-18T09:17:00.495Z,284.67
2023-05-18T09:19:03.588Z,194.70
2023-05-18T09:21:06.976Z,342.27
2023-05-18T09:23:12.006Z,283.53
2023-05-18T09:25:17.839Z,294.23
2023-05-18T09:27:21.728Z,297.50
2023-05-18T09:29:25.249Z,252.23
2023-05-18T09:31:28.563Z,276.03
2023-05-18T09:33:37.514Z,241.27
2023-05-18T09:35:42.564Z,248.63
2023-05-18T09:37:45.672Z,235.53
2023-05-18T09:39:59.988Z,296.87
2023-05-18T09:42:06.112Z,243.33
2023-05-18T09:44:10.117Z,237.33
2023-05-18T09:46:14.225Z,341.63
2023-05-18T09:48:18.081Z,305.93
2023-05-18T09:50:21.946Z,249.47
2023-05-18T09:52:25.236Z,281.37
2023-05-18T09:54:28.449Z,303.83
2023-05-18T09:56:31.749Z,341.20
2023-05-18T09:58:36.589Z,267.93
2023-05-18T10:00:42.757Z,340.30
2023-05-18T10:02:48.981Z,341.30
2023-05-18T10:04:52.421Z,342.37
2023-05-18T10:06:55.771Z,328.83
2023-05-18T10:08:59.432Z,342.27
2023-05-18T10:11:02.847Z,342.53
2023-05-18T10:13:05.996Z,528.97
2023-05-18T10:15:14.563Z,181.77
2023-05-18T10:17:18.035Z,342.37
2023-05-18T10:19:21.709Z,343.17
2023-05-18T10:21:26.013Z,341.83
2023-05-18T10:23:38.469Z,324.37
2023-05-18T10:25:43.915Z,308.43
2023-05-18T10:27:49.012Z,342.50
2023-05-18T10:29:52.744Z,381.90
2023-05-18T10:32:06.104Z,287.73
2023-05-18T10:34:11.686Z,340.97
2023-05-18T10:36:14.747Z,257.93
2023-05-18T10:38:22.182Z,266.00
2023-05-18T10:40:25.809Z,341.10
2023-05-18T10:42:31.284Z,524.27
2023-05-18T10:44:34.376Z,341.93
2023-05-18T10:46:38.434Z,359.83
2023-05-18T10:48:43.909Z,345.07
2023-05-18T10:50:49.466Z,356.83
2023-05-18T10:52:53.239Z,341.60
2023-05-18T10:54:56.422Z,342.63
2023-05-18T10:56:59.603Z,341.80
2023-05-18T10:59:02.816Z,344.97
2023-05-18T11:01:09.259Z,342.53
2023-05-18T11:03:14.446Z,313.20
2023-05-18T11:05:24.956Z,307.20
2023-05-18T11:07:30.557Z,342.30
2023-05-18T11:09:34.744Z,331.50
2023-05-18T11:11:54.173Z,246.17
2023-05-18T11:14:02.160Z,267.13
2023-05-18T11:16:06.887Z,291.80
2023-05-18T11:18:16.577Z,451.83
2023-05-18T11:20:26.768Z,263.93
2023-05-18T11:22:42.455Z,342.63
2023-05-18T11:24:45.467Z,274.77
2023-05-18T11:26:49.373Z,305.23
2023-05-18T11:28:53.731Z,409.33
2023-05-18T11:30:57.128Z,341.30
2023-05-18T11:33:09.844Z,487.10
2023-05-18T11:35:25.710Z,311.13
2023-05-18T11:37:50.823Z,388.50
2023-05-18T11:40:00.110Z,341.40
2023-05-18T11:42:07.900Z,340.30
2023-05-18T11:44:18.639Z,341.97
2023-05-18T11:46:22.635Z,343.70
2023-05-18T11:48:29.983Z,345.30
2023-05-18T11:50:34.645Z,341.77
2023-05-18T11:52:47.017Z,341.60
2023-05-18T11:54:52.860Z,295.50
2023-05-18T11:56:56.735Z,339.83
2023-05-18T11:59:15.997Z,340.50
2023-05-18T12:01:19.366Z,389.83
2023-05-18T12:03:24.981Z,341.67
2023-05-18T12:05:31.753Z,339.73
2023-05-18T12:07:37.135Z,342.80
2023-05-18T12:09:42.718Z,339.90
2023-05-18T12:11:45.731Z,342.07
2023-05-18T12:13:50.323Z,341.90
2023-05-18T12:15:58.226Z,341.17
2023-05-18T12:18:02.266Z,350.57
2023-05-18T12:20:05.950Z,342.57
2023-05-18T12:22:10.032Z,293.67
2023-05-18T12:24:14.485Z,340.80
2023-05-18T12:26:20.582Z,342.10
2023-05-18T12:28:26.879Z,341.50
2023-05-18T12:30:36.070Z,352.07
2023-05-18T12:32:40.778Z,340.53
2023-05-18T12:34:45.519Z,343.90
2023-05-18T12:36:54.417Z,340.73
2023-05-18T12:38:57.428Z,342.03
2023-05-18T12:41:03.880Z,340.27
2023-05-18T12:43:07.465Z,333.50
2023-05-18T12:45:12.697Z,341.67
2023-05-18T12:47:15.905Z,339.47
2023-05-18T12:49:20.346Z,516.00
2023-05-18T12:51:23.479Z,341.27
2023-05-18T12:53:26.880Z,340.20
2023-05-18T12:55:32.131Z,340.27
2023-05-18T12:57:41.835Z,341.23
2023-05-18T12:59:51.008Z,339.17
2023-05-18T13:01:54.891Z,342.30
2023-05-18T13:03:59.355Z,340.30
2023-05-18T13:06:06.592Z,404.80
2023-05-18T13:08:09.943Z,711.83
2023-05-18T13:10:17.872Z,342.07
2023-05-18T13:12:36.712Z,340.93
2023-05-18T13:14:43.428Z,340.03
2023-05-18T13:16:46.964Z,408.13
2023-05-18T13:18:57.455Z,340.23
2023-05-18T13:21:00.763Z,341.20
2023-05-18T13:23:04.871Z,340.20
2023-05-18T13:25:09.159Z,340.37
2023-05-18T13:27:16.310Z,343.77
2023-05-18T13:29:19.396Z,342.67
2023-05-18T13:31:25.111Z,340.57
2023-05-18T13:33:28.384Z,341.37
2023-05-18T13:35:31.646Z,342.43
2023-05-18T13:37:34.912Z,340.50
2023-05-18T13:39:37.901Z,341.20
2023-05-18T13:41:41.036Z,341.40
2023-05-18T13:43:45.616Z,368.77
2023-05-18T13:45:48.942Z,522.07
2023-05-18T13:47:54.613Z,340.43
2023-05-18T13:49:57.664Z,340.17
2023-05-18T13:52:01.172Z,341.80
2023-05-18T13:54:07.867Z,282.73
2023-05-18T13:56:10.905Z,341.33
2023-05-18T13:58:13.948Z,340.80
2023-05-18T14:00:18.038Z,341.93
2023-05-18T14:02:21.250Z,341.53
2023-05-18T14:04:25.785Z,342.40
2023-05-18T14:06:28.858Z,341.33
2023-05-18T14:08:31.991Z,340.87
2023-05-18T14:10:35.045Z,340.10
2023-05-18T14:12:38.139Z,342.83
2023-05-18T14:14:43.155Z,341.70
2023-05-18T14:16:46.443Z,341.10
2023-05-18T14:18:49.558Z,339.87
2023-05-18T14:20:53.963Z,341.60
2023-05-18T14:22:57.011Z,341.63
2023-05-18T14:25:00.931Z,342.40
2023-05-18T14:27:04.250Z,340.47
2023-05-18T14:29:07.360Z,343.30
2023-05-18T14:31:10.605Z,340.40
2023-05-18T14:33:13.855Z,340.63
2023-05-18T14:35:17.022Z,323.10
2023-05-18T14:37:21.364Z,341.83
2023-05-18T14:39:24.415Z,526.53
2023-05-18T14:41:27.549Z,340.73
2023-05-18T14:43:30.711Z,775.27
2023-05-18T14:45:33.793Z,342.57
2023-05-18T14:47:36.882Z,341.67
2023-05-18T14:49:40.005Z,340.10
2023-05-18T14:51:43.445Z,340.30
2023-05-18T14:53:47.865Z,497.17
2023-05-18T14:55:51.036Z,342.90
2023-05-18T14:57:54.088Z,341.37
2023-05-18T14:59:58.252Z,338.93
2023-05-18T15:02:01.563Z,340.60
2023-05-18T15:04:04.825Z,341.03
2023-05-18T15:06:08.123Z,304.93
2023-05-18T15:08:11.158Z,623.50
2023-05-18T15:10:15.776Z,340.60
2023-05-18T15:12:19.766Z,341.10
2023-05-18T15:14:22.924Z,344.40
2023-05-18T15:16:26.048Z,522.93
2023-05-18T15:18:29.463Z,341.37
2023-05-18T15:20:32.976Z,341.53
2023-05-18T15:22:38.202Z,348.30
2023-05-18T15:24:41.519Z,340.37
2023-05-18T15:26:46.190Z,365.17
2023-05-18T15:28:50.564Z,340.27
2023-05-18T15:30:54.466Z,340.40
2023-05-18T15:32:57.773Z,340.40
2023-05-18T15:35:00.842Z,339.47
2023-05-18T15:37:03.896Z,341.03
2023-05-18T15:39:06.869Z,339.87
2023-05-18T15:41:11.528Z,340.77
2023-05-18T15:43:16.026Z,341.37
2023-05-18T15:45:19.127Z,340.63
2023-05-18T15:47:22.333Z,340.40
2023-05-18T15:49:25.546Z,341.87
2023-05-18T15:51:28.775Z,452.10
2023-05-18T15:53:32.358Z,341.90
2023-05-18T15:55:35.425Z,340.50
2023-05-18T15:57:38.631Z,340.67
2023-05-18T15:59:43.707Z,339.77
2023-05-18T16:01:49.656Z,340.20
2023-05-18T16:03:52.969Z,340.97
2023-05-18T16:05:56.182Z,339.60
2023-05-18T16:07:59.613Z,340.20
2023-05-18T16:10:02.712Z,340.87
2023-05-18T16:12:06.481Z,340.33
2023-05-18T16:14:09.538Z,341.80
2023-05-18T16:16:14.208Z,339.90
2023-05-18T16:18:17.419Z,340.33
2023-05-18T16:20:21.140Z,339.87
2023-05-18T16:22:24.217Z,340.17
2023-05-18T16:24:27.351Z,341.47
2023-05-18T16:26:30.409Z,340.17
2023-05-18T16:28:33.524Z,339.73
2023-05-18T16:30:36.574Z,340.63
2023-05-18T16:32:43.189Z,342.50
2023-05-18T16:34:46.382Z,343.40
2023-05-18T16:36:49.547Z,341.10
2023-05-18T16:38:52.629Z,341.73
2023-05-18T16:40:55.691Z,342.37
2023-05-18T16:42:58.779Z,339.47
2023-05-18T16:45:01.811Z,339.63
2023-05-18T16:47:05.039Z,342.13
2023-05-18T16:49:09.452Z,340.53
2023-05-18T16:51:12.528Z,341.17
2023-05-18T16:53:15.627Z,339.83
2023-05-18T16:55:18.772Z,342.33
2023-05-18T16:57:22.214Z,340.63
2023-05-18T16:59:25.621Z,340.53
2023-05-18T17:01:30.760Z,341.90
2023-05-18T17:03:34.363Z,341.57
2023-05-18T17:05:39.304Z,341.47
2023-05-18T17:07:42.351Z,555.30
2023-05-18T17:09:45.499Z,341.20
2023-05-18T17:11:48.585Z,363.93
2023-05-18T17:13:52.173Z,340.57
2023-05-18T17:15:55.334Z,341.30
2023-05-18T17:17:58.436Z,341.37
2023-05-18T17:20:02.131Z,341.03
2023-05-18T17:22:09.480Z,340.37
2023-05-18T17:24:12.721Z,338.93
2023-05-18T17:26:15.864Z,341.10
2023-05-18T17:28:18.952Z,340.07
2023-05-18T17:30:22.161Z,340.37
2023-05-18T17:32:25.196Z,341.57
2023-05-18T17:34:30.512Z,341.23
2023-05-18T17:36:33.606Z,342.83
2023-05-18T17:38:38.035Z,340.33
2023-05-18T17:40:41.376Z,340.77
2023-05-18T17:42:44.415Z,340.27
2023-05-18T17:44:47.606Z,340.97
2023-05-18T17:46:50.966Z,339.77
2023-05-18T17:48:54.069Z,340.50
2023-05-18T17:50:57.245Z,339.70
2023-05-18T17:53:00.327Z,339.20
2023-05-18T17:55:05.043Z,368.47
2023-05-18T17:57:08.063Z,350.63
2023-05-18T17:59:11.184Z,347.03
2023-05-18T18:01:14.394Z,370.10
2023-05-18T18:03:20.445Z,351.63
2023-05-18T18:05:23.720Z,347.60
2023-05-18T18:07:26.889Z,351.77
2023-05-18T18:09:30.142Z,358.80
2023-05-18T18:11:34.825Z,342.53
2023-05-18T18:13:38.187Z,347.53
2023-05-18T18:15:41.372Z,342.17
2023-05-18T18:17:44.740Z,340.17
2023-05-18T18:19:47.902Z,339.73
2023-05-18T18:21:51.174Z,339.87
2023-05-18T18:23:54.299Z,340.50
2023-05-18T18:25:57.330Z,341.37
2023-05-18T18:28:01.844Z,340.33
2023-05-18T18:30:05.667Z,341.97
2023-05-18T18:32:09.021Z,341.43
2023-05-18T18:34:12.480Z,340.77
2023-05-18T18:36:15.956Z,339.87
2023-05-18T18:38:19.083Z,341.87
2023-05-18T18:40:22.309Z,338.83
2023-05-18T18:42:25.888Z,342.77
2023-05-18T18:44:30.397Z,340.50
2023-05-18T18:46:33.605Z,340.67
2023-05-18T18:48:37.225Z,339.40
2023-05-18T18:50:40.364Z,676.83
2023-05-18T18:52:43.462Z,340.63
2023-05-18T18:54:46.628Z,341.17
2023-05-18T18:56:50.177Z,340.33
2023-05-18T18:58:53.339Z,340.33
2023-05-18T19:00:57.841Z,340.67
2023-05-18T19:03:01.254Z,340.53
2023-05-18T19:05:05.514Z,339.87
2023-05-18T19:07:08.840Z,342.13
2023-05-18T19:09:11.936Z,341.27
2023-05-18T19:11:15.095Z,340.13
2023-05-18T19:13:18.296Z,340.97
2023-05-18T19:15:22.331Z,341.23
2023-05-18T19:17:27.039Z,339.97
2023-05-18T19:19:32.603Z,340.93
2023-05-18T19:21:36.088Z,341.03
2023-05-18T19:23:39.330Z,342.43
2023-05-18T19:25:42.518Z,340.30
2023-05-18T19:27:46.109Z,341.40
2023-05-18T19:29:49.495Z,340.70
2023-05-18T19:31:54.618Z,341.07
2023-05-18T19:34:00.007Z,339.87
2023-05-18T19:36:04.218Z,340.33
2023-05-18T19:38:07.397Z,340.27
2023-05-18T19:40:10.661Z,341.23
2023-05-18T19:42:13.832Z,340.47
2023-05-18T19:44:17.008Z,342.83
2023-05-18T19:46:20.480Z,339.93
2023-05-18T19:48:23.890Z,343.93
2023-05-18T19:50:28.520Z,340.03
2023-05-18T19:52:32.232Z,341.70
2023-05-18T19:54:35.984Z,340.73
2023-05-18T19:56:39.432Z,340.83
2023-05-18T19:58:42.842Z,340.03
2023-05-18T20:00:46.073Z,341.80
2023-05-18T20:02:49.302Z,342.47
2023-05-18T20:04:53.405Z,342.30
2023-05-18T20:06:59.993Z,340.37
2023-05-18T20:09:03.879Z,340.43
2023-05-18T20:11:07.321Z,341.87
2023-05-18T20:13:10.680Z,339.90
2023-05-18T20:15:14.266Z,340.97
2023-05-18T20:17:17.372Z,342.43
2023-05-18T20:19:22.172Z,341.70
2023-05-18T20:21:25.686Z,341.10
2023-05-18T20:23:30.205Z,342.13
2023-05-18T20:25:35.334Z,341.50
2023-05-18T20:27:38.673Z,342.10
2023-05-18T20:29:41.750Z,341.10
2023-05-18T20:31:46.244Z,340.67
2023-05-18T20:33:49.578Z,345.97
2023-05-18T20:35:52.983Z,339.63
2023-05-18T20:37:57.560Z,321.43
2023-05-18T20:40:02.725Z,341.23
2023-05-18T20:42:06.700Z,341.03
2023-05-18T20:44:11.345Z,340.57
2023-05-18T20:46:14.603Z,342.17
2023-05-18T20:48:24.668Z,341.33
2023-05-18T20:50:27.851Z,342.90
2023-05-18T20:52:31.217Z,341.80
2023-05-18T20:54:34.470Z,340.90
2023-05-18T20:56:39.041Z,343.20
2023-05-18T20:58:49.691Z,341.10
2023-05-18T21:00:55.559Z,341.03
2023-05-18T21:02:58.775Z,341.00
2023-05-18T21:05:02.788Z,341.20
2023-05-18T21:07:06.272Z,340.77
2023-05-18T21:09:09.610Z,355.00
2023-05-18T21:11:12.696Z,346.77
2023-05-18T21:13:17.244Z,341.93
2023-05-18T21:15:20.464Z,370.93
2023-05-18T21:17:23.630Z,342.30
2023-05-18T21:19:26.826Z,342.40
2023-05-18T21:21:29.956Z,340.60
2023-05-18T21:23:33.100Z,340.70
2023-05-18T21:25:36.180Z,340.17
2023-05-18T21:27:39.432Z,341.23
2023-05-18T21:29:44.118Z,342.77
2023-05-18T21:31:48.806Z,341.57
2023-05-18T21:33:52.714Z,340.30
2023-05-18T21:35:55.913Z,342.07
2023-05-18T21:37:58.967Z,340.90
2023-05-18T21:40:02.467Z,342.13
2023-05-18T21:42:05.988Z,340.70
2023-05-18T21:44:09.440Z,340.47
2023-05-18T21:46:13.921Z,340.70
2023-05-18T21:48:17.007Z,341.73
2023-05-18T21:50:20.064Z,341.43
2023-05-18T21:52:23.486Z,346.53
2023-05-18T21:54:26.506Z,768.33
2023-05-18T21:56:30.118Z,340.47
2023-05-18T21:58:33.140Z,339.70
2023-05-18T22:00:37.672Z,341.03
2023-05-18T22:02:42.319Z,339.83
2023-05-18T22:04:45.739Z,340.90
2023-05-18T22:06:48.802Z,342.03
2023-05-18T22:08:52.799Z,374.73
2023-05-18T22:10:55.927Z,340.63
2023-05-18T22:12:58.971Z,351.47
2023-05-18T22:15:02.122Z,341.60
2023-05-18T22:17:06.607Z,339.63
2023-05-18T22:19:11.165Z,340.37
2023-05-18T22:21:14.417Z,434.73
2023-05-18T22:23:17.469Z,343.00
2023-05-18T22:25:20.662Z,340.03
2023-05-18T22:27:23.800Z,340.47
2023-05-18T22:29:27.198Z,342.20
2023-05-18T22:31:30.522Z,720.10
2023-05-18T22:33:33.638Z,341.40
2023-05-18T22:35:38.089Z,341.17
2023-05-18T22:37:41.247Z,352.13
2023-05-18T22:39:44.481Z,341.67
2023-05-18T22:41:47.587Z,340.40
2023-05-18T22:43:50.619Z,344.10
2023-05-18T22:45:54.150Z,342.40
2023-05-18T22:47:57.286Z,345.47
2023-05-18T22:50:00.451Z,339.57
2023-05-18T22:52:06.710Z,340.27
2023-05-18T22:54:09.881Z,340.23
2023-05-18T22:56:13.066Z,472.13
2023-05-18T22:58:16.217Z,341.33
2023-05-18T23:00:19.523Z,405.30
2023-05-18T23:02:22.555Z,362.40
2023-05-18T23:04:25.923Z,341.47
2023-05-18T23:06:31.618Z,340.17
2023-05-18T23:08:37.116Z,341.67
2023-05-18T23:10:41.949Z,341.87
2023-05-18T23:12:45.757Z,375.13
2023-05-18T23:14:49.733Z,340.87
2023-05-18T23:16:53.620Z,340.77
2023-05-18T23:18:58.711Z,378.50
2023-05-18T23:21:02.768Z,342.60
2023-05-18T23:23:05.863Z,340.13
2023-05-18T23:25:11.146Z,341.03
2023-05-18T23:27:14.200Z,340.43
2023-05-18T23:29:17.344Z,395.20
2023-05-18T23:31:22.131Z,448.67
2023-05-18T23:33:26.014Z,340.80
2023-05-18T23:35:30.125Z,373.13
2023-05-18T23:37:33.654Z,342.90
2023-05-18T23:39:37.069Z,341.27
2023-05-18T23:41:41.594Z,341.43
2023-05-18T23:43:45.342Z,375.20
2023-05-18T23:45:49.065Z,340.80
2023-05-18T23:47:53.148Z,340.83
2023-05-18T23:49:57.046Z,345.40
2023-05-18T23:52:03.184Z,399.37
2023-05-18T23:54:07.477Z,341.73
2023-05-18T23:56:12.310Z,340.57
2023-05-18T23:58:17.304Z,341.80
